sensor_id;sensor_type;location;lat;lon;timestamp;P1;durP1;ratioP1;P2;durP2;ratioP2
19221;SDS011;9745;50.828;4.378;2024-02-15T00:01:27;17.70;;;5.13;;
19221;SDS011;9745;50.828;4.378;2024-02-15T00:03:53;17.93;;;5.33;;
19221;SDS011;9745;50.828;4.378;2024-02-15T00:06:19;17.60;;;4.57;;
19221;SDS011;9745;50.828;4.378;2024-02-15T00:08:45;15.03;;;5.83;;
19221;SDS011;9745;50.828;4.378;2024-02-15T00:11:11;14.00;;;4.70;;
19221;SDS011;9745;50.828;4.378;2024-02-15T00:13:38;16.50;;;4.30;;
19221;SDS011;9745;50.828;4.378;2024-02-15T00:16:04;16.73;;;5.03;;
19221;SDS011;9745;50.828;4.378;2024-02-15T00:18:31;12.27;;;4.40;;
19221;SDS011;9745;50.828;4.378;2024-02-15T00:20:57;21.43;;;4.80;;
19221;SDS011;9745;50.828;4.378;2024-02-15T00:23:25;14.97;;;4.33;;
19221;SDS011;9745;50.828;4.378;2024-02-15T00:25:50;13.63;;;4.47;;
19221;SDS011;9745;50.828;4.378;2024-02-15T00:28:17;12.73;;;4.00;;
19221;SDS011;9745;50.828;4.378;2024-02-15T00:30:43;11.00;;;4.63;;
19221;SDS011;9745;50.828;4.378;2024-02-15T00:33:09;9.90;;;3.57;;
19221;SDS011;9745;50.828;4.378;2024-02-15T00:35:35;7.37;;;3.40;;
19221;SDS011;9745;50.828;4.378;2024-02-15T00:38:01;12.40;;;3.67;;
19221;SDS011;9745;50.828;4.378;2024-02-15T00:40:27;15.10;;;4.37;;
19221;SDS011;9745;50.828;4.378;2024-02-15T00:42:53;9.43;;;3.50;;
19221;SDS011;9745;50.828;4.378;2024-02-15T00:45:19;13.03;;;3.73;;
19221;SDS011;9745;50.828;4.378;2024-02-15T00:47:45;14.77;;;3.60;;
19221;SDS011;9745;50.828;4.378;2024-02-15T00:50:11;9.23;;;3.43;;
19221;SDS011;9745;50.828;4.378;2024-02-15T00:52:38;8.67;;;3.53;;
19221;SDS011;9745;50.828;4.378;2024-02-15T00:55:04;15.37;;;3.40;;
19221;SDS011;9745;50.828;4.378;2024-02-15T00:57:30;11.20;;;3.30;;
19221;SDS011;9745;50.828;4.378;2024-02-15T00:59:56;11.40;;;3.07;;
19221;SDS011;9745;50.828;4.378;2024-02-15T01:02:22;7.27;;;3.00;;
19221;SDS011;9745;50.828;4.378;2024-02-15T01:04:49;19.50;;;3.23;;
19221;SDS011;9745;50.828;4.378;2024-02-15T01:07:15;9.40;;;3.03;;
19221;SDS011;9745;50.828;4.378;2024-02-15T01:09:41;12.10;;;3.17;;
19221;SDS011;9745;50.828;4.378;2024-02-15T01:12:07;16.07;;;3.43;;
19221;SDS011;9745;50.828;4.378;2024-02-15T01:14:34;12.40;;;2.73;;
19221;SDS011;9745;50.828;4.378;2024-02-15T01:17:00;9.63;;;3.20;;
19221;SDS011;9745;50.828;4.378;2024-02-15T01:19:26;9.23;;;3.03;;
19221;SDS011;9745;50.828;4.378;2024-02-15T01:21:52;8.37;;;2.40;;
19221;SDS011;9745;50.828;4.378;2024-02-15T01:24:18;11.33;;;2.47;;
19221;SDS011;9745;50.828;4.378;2024-02-15T01:26:44;7.20;;;2.10;;
19221;SDS011;9745;50.828;4.378;2024-02-15T01:29:12;15.70;;;2.40;;
19221;SDS011;9745;50.828;4.378;2024-02-15T01:31:39;12.43;;;2.07;;
19221;SDS011;9745;50.828;4.378;2024-02-15T01:34:05;11.27;;;2.50;;
19221;SDS011;9745;50.828;4.378;2024-02-15T01:36:31;7.67;;;2.37;;
19221;SDS011;9745;50.828;4.378;2024-02-15T01:38:57;11.67;;;2.33;;
19221;SDS011;9745;50.828;4.378;2024-02-15T01:41:23;6.73;;;2.30;;
19221;SDS011;9745;50.828;4.378;2024-02-15T01:43:49;7.50;;;2.50;;
19221;SDS011;9745;50.828;4.378;2024-02-15T01:46:15;14.47;;;2.43;;
19221;SDS011;9745;50.828;4.378;2024-02-15T01:48:41;9.53;;;2.50;;
19221;SDS011;9745;50.828;4.378;2024-02-15T01:51:08;7.90;;;2.60;;
19221;SDS011;9745;50.828;4.378;2024-02-15T01:53:35;16.77;;;3.37;;
19221;SDS011;9745;50.828;4.378;2024-02-15T01:56:01;4.87;;;2.10;;
19221;SDS011;9745;50.828;4.378;2024-02-15T01:58:27;10.80;;;2.50;;
19221;SDS011;9745;50.828;4.378;2024-02-15T02:00:56;6.43;;;2.00;;
19221;SDS011;9745;50.828;4.378;2024-02-15T02:03:22;5.33;;;2.27;;
19221;SDS011;9745;50.828;4.378;2024-02-15T02:05:48;8.43;;;2.10;;
19221;SDS011;9745;50.828;4.378;2024-02-15T02:08:14;5.87;;;1.87;;
19221;SDS011;9745;50.828;4.378;2024-02-15T02:10:40;13.60;;;2.57;;
19221;SDS011;9745;50.828;4.378;2024-02-15T02:13:06;8.80;;;3.60;;
19221;SDS011;9745;50.828;4.378;2024-02-15T02:15:32;12.50;;;3.00;;
19221;SDS011;9745;50.828;4.378;2024-02-15T02:17:59;6.97;;;2.03;;
19221;SDS011;9745;50.828;4.378;2024-02-15T02:20:26;7.17;;;2.00;;
19221;SDS011;9745;50.828;4.378;2024-02-15T02:22:53;11.17;;;2.87;;
19221;SDS011;9745;50.828;4.378;2024-02-15T02:25:24;6.00;;;1.80;;
19221;SDS011;9745;50.828;4.378;2024-02-15T02:27:51;8.83;;;2.27;;
19221;SDS011;9745;50.828;4.378;2024-02-15T02:30:17;12.83;;;2.77;;
19221;SDS011;9745;50.828;4.378;2024-02-15T02:32:44;6.63;;;2.07;;
19221;SDS011;9745;50.828;4.378;2024-02-15T02:35:11;6.97;;;1.67;;
19221;SDS011;9745;50.828;4.378;2024-02-15T02:37:38;9.27;;;2.50;;
19221;SDS011;9745;50.828;4.378;2024-02-15T02:40:05;7.00;;;2.00;;
19221;SDS011;9745;50.828;4.378;2024-02-15T02:42:33;7.40;;;2.20;;
19221;SDS011;9745;50.828;4.378;2024-02-15T02:44:59;7.77;;;2.00;;
19221;SDS011;9745;50.828;4.378;2024-02-15T02:47:25;7.07;;;1.90;;
19221;SDS011;9745;50.828;4.378;2024-02-15T02:49:51;8.23;;;2.23;;
19221;SDS011;9745;50.828;4.378;2024-02-15T02:52:17;10.10;;;2.30;;
19221;SDS011;9745;50.828;4.378;2024-02-15T02:54:43;8.40;;;2.40;;
19221;SDS011;9745;50.828;4.378;2024-02-15T02:57:09;8.70;;;2.17;;
19221;SDS011;9745;50.828;4.378;2024-02-15T02:59:35;6.87;;;2.77;;
19221;SDS011;9745;50.828;4.378;2024-02-15T03:02:04;7.07;;;2.20;;
19221;SDS011;9745;50.828;4.378;2024-02-15T03:04:33;5.50;;;1.87;;
19221;SDS011;9745;50.828;4.378;2024-02-15T03:06:59;7.67;;;2.37;;
19221;SDS011;9745;50.828;4.378;2024-02-15T03:09:25;6.30;;;1.87;;
19221;SDS011;9745;50.828;4.378;2024-02-15T03:11:54;5.83;;;1.90;;
19221;SDS011;9745;50.828;4.378;2024-02-15T03:14:20;5.73;;;1.83;;
19221;SDS011;9745;50.828;4.378;2024-02-15T03:16:46;6.43;;;2.70;;
19221;SDS011;9745;50.828;4.378;2024-02-15T03:19:12;5.07;;;2.00;;
19221;SDS011;9745;50.828;4.378;2024-02-15T03:21:38;7.73;;;2.10;;
19221;SDS011;9745;50.828;4.378;2024-02-15T03:24:06;9.33;;;2.57;;
19221;SDS011;9745;50.828;4.378;2024-02-15T03:26:32;5.43;;;1.87;;
19221;SDS011;9745;50.828;4.378;2024-02-15T03:29:02;4.50;;;2.00;;
19221;SDS011;9745;50.828;4.378;2024-02-15T03:31:28;5.97;;;2.10;;
19221;SDS011;9745;50.828;4.378;2024-02-15T03:33:55;5.90;;;2.03;;
19221;SDS011;9745;50.828;4.378;2024-02-15T03:36:21;6.57;;;1.73;;
19221;SDS011;9745;50.828;4.378;2024-02-15T03:38:48;7.77;;;2.00;;
19221;SDS011;9745;50.828;4.378;2024-02-15T03:41:14;8.87;;;2.23;;
19221;SDS011;9745;50.828;4.378;2024-02-15T03:43:40;5.77;;;2.13;;
19221;SDS011;9745;50.828;4.378;2024-02-15T03:46:06;6.60;;;2.30;;
19221;SDS011;9745;50.828;4.378;2024-02-15T03:48:33;10.47;;;2.10;;
19221;SDS011;9745;50.828;4.378;2024-02-15T03:51:00;8.53;;;2.03;;
19221;SDS011;9745;50.828;4.378;2024-02-15T03:53:26;6.53;;;1.97;;
19221;SDS011;9745;50.828;4.378;2024-02-15T03:55:55;6.83;;;2.00;;
19221;SDS011;9745;50.828;4.378;2024-02-15T03:58:21;3.73;;;2.00;;
19221;SDS011;9745;50.828;4.378;2024-02-15T04:00:47;10.20;;;2.17;;
19221;SDS011;9745;50.828;4.378;2024-02-15T04:03:13;3.27;;;1.60;;
19221;SDS011;9745;50.828;4.378;2024-02-15T04:05:39;6.13;;;2.13;;
19221;SDS011;9745;50.828;4.378;2024-02-15T04:08:05;8.50;;;2.13;;
19221;SDS011;9745;50.828;4.378;2024-02-15T04:10:31;10.57;;;2.20;;
19221;SDS011;9745;50.828;4.378;2024-02-15T04:12:57;11.20;;;2.83;;
19221;SDS011;9745;50.828;4.378;2024-02-15T04:15:23;9.97;;;2.77;;
19221;SDS011;9745;50.828;4.378;2024-02-15T04:17:50;8.60;;;2.40;;
19221;SDS011;9745;50.828;4.378;2024-02-15T04:20:21;11.77;;;2.43;;
19221;SDS011;9745;50.828;4.378;2024-02-15T04:22:47;9.47;;;2.77;;
19221;SDS011;9745;50.828;4.378;2024-02-15T04:25:15;6.43;;;1.73;;
19221;SDS011;9745;50.828;4.378;2024-02-15T04:27:44;9.00;;;2.83;;
19221;SDS011;9745;50.828;4.378;2024-02-15T04:30:11;11.80;;;2.40;;
19221;SDS011;9745;50.828;4.378;2024-02-15T04:32:37;9.93;;;2.40;;
19221;SDS011;9745;50.828;4.378;2024-02-15T04:35:03;5.90;;;2.13;;
19221;SDS011;9745;50.828;4.378;2024-02-15T04:37:30;4.73;;;2.07;;
19221;SDS011;9745;50.828;4.378;2024-02-15T04:39:57;7.30;;;1.80;;
19221;SDS011;9745;50.828;4.378;2024-02-15T04:42:23;7.33;;;2.20;;
19221;SDS011;9745;50.828;4.378;2024-02-15T04:44:51;8.80;;;2.10;;
19221;SDS011;9745;50.828;4.378;2024-02-15T04:47:19;9.00;;;1.90;;
19221;SDS011;9745;50.828;4.378;2024-02-15T04:49:45;6.13;;;2.07;;
19221;SDS011;9745;50.828;4.378;2024-02-15T04:52:11;8.63;;;2.23;;
19221;SDS011;9745;50.828;4.378;2024-02-15T04:54:37;6.67;;;2.00;;
19221;SDS011;9745;50.828;4.378;2024-02-15T04:57:03;6.03;;;2.43;;
19221;SDS011;9745;50.828;4.378;2024-02-15T04:59:31;11.60;;;2.53;;
19221;SDS011;9745;50.828;4.378;2024-02-15T05:01:58;5.93;;;1.90;;
19221;SDS011;9745;50.828;4.378;2024-02-15T05:04:24;9.03;;;1.87;;
19221;SDS011;9745;50.828;4.378;2024-02-15T05:06:51;3.13;;;1.47;;
19221;SDS011;9745;50.828;4.378;2024-02-15T05:09:17;6.50;;;2.10;;
19221;SDS011;9745;50.828;4.378;2024-02-15T05:11:43;5.70;;;1.73;;
19221;SDS011;9745;50.828;4.378;2024-02-15T05:14:16;9.47;;;1.83;;
19221;SDS011;9745;50.828;4.378;2024-02-15T05:16:48;8.10;;;1.80;;
19221;SDS011;9745;50.828;4.378;2024-02-15T05:19:17;5.53;;;1.63;;
19221;SDS011;9745;50.828;4.378;2024-02-15T05:21:44;4.67;;;1.50;;
19221;SDS011;9745;50.828;4.378;2024-02-15T05:24:12;7.57;;;2.10;;
19221;SDS011;9745;50.828;4.378;2024-02-15T05:26:38;5.40;;;1.40;;
19221;SDS011;9745;50.828;4.378;2024-02-15T05:29:04;4.13;;;1.67;;
19221;SDS011;9745;50.828;4.378;2024-02-15T05:31:31;4.73;;;1.67;;
19221;SDS011;9745;50.828;4.378;2024-02-15T05:33:57;5.33;;;1.40;;
19221;SDS011;9745;50.828;4.378;2024-02-15T05:36:23;4.27;;;1.70;;
19221;SDS011;9745;50.828;4.378;2024-02-15T05:38:51;5.27;;;1.70;;
19221;SDS011;9745;50.828;4.378;2024-02-15T05:41:17;7.83;;;1.80;;
19221;SDS011;9745;50.828;4.378;2024-02-15T05:43:45;6.13;;;1.70;;
19221;SDS011;9745;50.828;4.378;2024-02-15T05:46:13;8.70;;;1.93;;
19221;SDS011;9745;50.828;4.378;2024-02-15T05:48:39;5.67;;;1.50;;
19221;SDS011;9745;50.828;4.378;2024-02-15T05:51:08;6.50;;;1.47;;
19221;SDS011;9745;50.828;4.378;2024-02-15T05:53:35;5.50;;;1.77;;
19221;SDS011;9745;50.828;4.378;2024-02-15T05:56:02;4.93;;;1.67;;
19221;SDS011;9745;50.828;4.378;2024-02-15T05:58:29;6.77;;;1.93;;
19221;SDS011;9745;50.828;4.378;2024-02-15T06:00:55;6.37;;;1.40;;
19221;SDS011;9745;50.828;4.378;2024-02-15T06:03:26;6.30;;;1.50;;
19221;SDS011;9745;50.828;4.378;2024-02-15T06:05:52;6.13;;;1.40;;
19221;SDS011;9745;50.828;4.378;2024-02-15T06:08:23;5.50;;;1.30;;
19221;SDS011;9745;50.828;4.378;2024-02-15T06:10:49;5.67;;;1.67;;
19221;SDS011;9745;50.828;4.378;2024-02-15T06:13:15;5.50;;;1.70;;
19221;SDS011;9745;50.828;4.378;2024-02-15T06:15:41;3.47;;;1.20;;
19221;SDS011;9745;50.828;4.378;2024-02-15T06:18:07;5.47;;;1.30;;
19221;SDS011;9745;50.828;4.378;2024-02-15T06:20:37;4.27;;;1.27;;
19221;SDS011;9745;50.828;4.378;2024-02-15T06:23:04;5.10;;;1.40;;
19221;SDS011;9745;50.828;4.378;2024-02-15T06:25:32;8.17;;;1.50;;
19221;SDS011;9745;50.828;4.378;2024-02-15T06:27:58;8.23;;;1.40;;
19221;SDS011;9745;50.828;4.378;2024-02-15T06:30:27;6.30;;;1.20;;
19221;SDS011;9745;50.828;4.378;2024-02-15T06:33:12;5.00;;;1.93;;
19221;SDS011;9745;50.828;4.378;2024-02-15T06:35:56;5.87;;;1.60;;
19221;SDS011;9745;50.828;4.378;2024-02-15T06:38:41;7.37;;;1.60;;
19221;SDS011;9745;50.828;4.378;2024-02-15T06:41:26;6.23;;;1.47;;
19221;SDS011;9745;50.828;4.378;2024-02-15T06:43:53;6.17;;;1.50;;
19221;SDS011;9745;50.828;4.378;2024-02-15T06:46:20;3.77;;;1.23;;
19221;SDS011;9745;50.828;4.378;2024-02-15T06:48:46;3.27;;;1.30;;
19221;SDS011;9745;50.828;4.378;2024-02-15T06:51:13;5.57;;;1.30;;
19221;SDS011;9745;50.828;4.378;2024-02-15T06:53:40;8.77;;;1.70;;
19221;SDS011;9745;50.828;4.378;2024-02-15T06:56:08;4.03;;;1.43;;
19221;SDS011;9745;50.828;4.378;2024-02-15T06:58:35;3.97;;;2.03;;
19221;SDS011;9745;50.828;4.378;2024-02-15T07:01:01;4.27;;;1.33;;
19221;SDS011;9745;50.828;4.378;2024-02-15T07:03:28;8.60;;;1.70;;
19221;SDS011;9745;50.828;4.378;2024-02-15T07:05:57;10.10;;;1.80;;
19221;SDS011;9745;50.828;4.378;2024-02-15T07:08:23;5.57;;;1.27;;
19221;SDS011;9745;50.828;4.378;2024-02-15T07:10:50;3.80;;;1.60;;
19221;SDS011;9745;50.828;4.378;2024-02-15T07:13:19;7.13;;;1.60;;
19221;SDS011;9745;50.828;4.378;2024-02-15T07:15:45;9.43;;;1.70;;
19221;SDS011;9745;50.828;4.378;2024-02-15T07:18:12;3.57;;;1.53;;
19221;SDS011;9745;50.828;4.378;2024-02-15T07:20:41;6.03;;;1.60;;
19221;SDS011;9745;50.828;4.378;2024-02-15T07:23:07;6.57;;;1.60;;
19221;SDS011;9745;50.828;4.378;2024-02-15T07:25:33;5.83;;;1.23;;
19221;SDS011;9745;50.828;4.378;2024-02-15T07:27:59;7.87;;;1.50;;
19221;SDS011;9745;50.828;4.378;2024-02-15T07:30:25;3.03;;;1.40;;
19221;SDS011;9745;50.828;4.378;2024-02-15T07:32:51;5.83;;;1.93;;
19221;SDS011;9745;50.828;4.378;2024-02-15T07:35:17;4.77;;;1.27;;
19221;SDS011;9745;50.828;4.378;2024-02-15T07:37:53;4.67;;;1.60;;
19221;SDS011;9745;50.828;4.378;2024-02-15T07:40:23;5.90;;;1.17;;
19221;SDS011;9745;50.828;4.378;2024-02-15T07:42:54;9.93;;;2.10;;
19221;SDS011;9745;50.828;4.378;2024-02-15T07:45:20;3.53;;;1.20;;
19221;SDS011;9745;50.828;4.378;2024-02-15T07:47:46;5.50;;;1.83;;
19221;SDS011;9745;50.828;4.378;2024-02-15T07:50:17;3.47;;;1.43;;
19221;SDS011;9745;50.828;4.378;2024-02-15T07:52:47;6.13;;;1.40;;
19221;SDS011;9745;50.828;4.378;2024-02-15T07:55:13;5.17;;;1.37;;
19221;SDS011;9745;50.828;4.378;2024-02-15T07:57:39;5.60;;;1.43;;
19221;SDS011;9745;50.828;4.378;2024-02-15T08:00:06;7.93;;;1.87;;
19221;SDS011;9745;50.828;4.378;2024-02-15T08:02:39;3.50;;;1.60;;
19221;SDS011;9745;50.828;4.378;2024-02-15T08:05:06;3.90;;;1.53;;
19221;SDS011;9745;50.828;4.378;2024-02-15T08:07:35;6.47;;;1.60;;
19221;SDS011;9745;50.828;4.378;2024-02-15T08:10:01;5.30;;;1.50;;
19221;SDS011;9745;50.828;4.378;2024-02-15T08:12:28;5.80;;;1.80;;
19221;SDS011;9745;50.828;4.378;2024-02-15T08:14:55;8.93;;;2.13;;
19221;SDS011;9745;50.828;4.378;2024-02-15T08:17:23;12.93;;;1.87;;
19221;SDS011;9745;50.828;4.378;2024-02-15T08:19:50;8.50;;;1.73;;
19221;SDS011;9745;50.828;4.378;2024-02-15T08:22:16;10.87;;;1.87;;
19221;SDS011;9745;50.828;4.378;2024-02-15T08:24:44;13.57;;;1.67;;
19221;SDS011;9745;50.828;4.378;2024-02-15T08:27:12;11.87;;;1.80;;
19221;SDS011;9745;50.828;4.378;2024-02-15T08:29:38;8.63;;;2.17;;
19221;SDS011;9745;50.828;4.378;2024-02-15T08:32:04;10.10;;;1.77;;
19221;SDS011;9745;50.828;4.378;2024-02-15T08:34:32;33.53;;;3.40;;
19221;SDS011;9745;50.828;4.378;2024-02-15T08:36:58;11.13;;;1.90;;
19221;SDS011;9745;50.828;4.378;2024-02-15T08:39:24;13.43;;;1.93;;
19221;SDS011;9745;50.828;4.378;2024-02-15T08:41:50;14.80;;;2.43;;
19221;SDS011;9745;50.828;4.378;2024-02-15T08:44:18;9.43;;;1.67;;
19221;SDS011;9745;50.828;4.378;2024-02-15T08:46:45;15.97;;;2.00;;
19221;SDS011;9745;50.828;4.378;2024-02-15T08:49:11;9.10;;;1.53;;
19221;SDS011;9745;50.828;4.378;2024-02-15T08:51:38;8.17;;;1.73;;
19221;SDS011;9745;50.828;4.378;2024-02-15T08:54:04;10.47;;;2.00;;
19221;SDS011;9745;50.828;4.378;2024-02-15T08:56:30;11.33;;;2.20;;
19221;SDS011;9745;50.828;4.378;2024-02-15T08:58:58;25.37;;;2.27;;
19221;SDS011;9745;50.828;4.378;2024-02-15T09:01:24;9.03;;;2.03;;
19221;SDS011;9745;50.828;4.378;2024-02-15T09:03:50;13.97;;;2.10;;
19221;SDS011;9745;50.828;4.378;2024-02-15T09:06:16;17.30;;;2.37;;
19221;SDS011;9745;50.828;4.378;2024-02-15T09:08:42;5.47;;;1.67;;
19221;SDS011;9745;50.828;4.378;2024-02-15T09:11:08;6.93;;;2.13;;
19221;SDS011;9745;50.828;4.378;2024-02-15T09:13:37;14.67;;;1.70;;
19221;SDS011;9745;50.828;4.378;2024-02-15T09:16:04;10.53;;;2.50;;
19221;SDS011;9745;50.828;4.378;2024-02-15T09:18:30;12.10;;;2.10;;
19221;SDS011;9745;50.828;4.378;2024-02-15T09:20:56;18.03;;;2.47;;
19221;SDS011;9745;50.828;4.378;2024-02-15T09:23:22;5.20;;;1.57;;
19221;SDS011;9745;50.828;4.378;2024-02-15T09:25:51;15.67;;;1.93;;
19221;SDS011;9745;50.828;4.378;2024-02-15T09:28:19;8.20;;;2.07;;
19221;SDS011;9745;50.828;4.378;2024-02-15T09:30:47;9.60;;;1.93;;
19221;SDS011;9745;50.828;4.378;2024-02-15T09:33:13;4.50;;;1.50;;
19221;SDS011;9745;50.828;4.378;2024-02-15T09:35:39;8.07;;;1.43;;
19221;SDS011;9745;50.828;4.378;2024-02-15T09:38:05;9.37;;;1.80;;
19221;SDS011;9745;50.828;4.378;2024-02-15T09:40:31;8.53;;;1.60;;
19221;SDS011;9745;50.828;4.378;2024-02-15T09:42:59;7.30;;;1.53;;
19221;SDS011;9745;50.828;4.378;2024-02-15T09:45:25;11.57;;;1.90;;
19221;SDS011;9745;50.828;4.378;2024-02-15T09:47:51;8.93;;;1.83;;
19221;SDS011;9745;50.828;4.378;2024-02-15T09:50:18;6.30;;;1.53;;
19221;SDS011;9745;50.828;4.378;2024-02-15T09:52:45;11.97;;;2.10;;
19221;SDS011;9745;50.828;4.378;2024-02-15T09:55:11;6.13;;;1.90;;
19221;SDS011;9745;50.828;4.378;2024-02-15T09:57:38;9.03;;;1.40;;
19221;SDS011;9745;50.828;4.378;2024-02-15T10:00:05;6.20;;;1.30;;
19221;SDS011;9745;50.828;4.378;2024-02-15T10:02:35;5.97;;;1.60;;
19221;SDS011;9745;50.828;4.378;2024-02-15T10:05:02;5.80;;;1.50;;
19221;SDS011;9745;50.828;4.378;2024-02-15T10:07:28;4.33;;;1.37;;
19221;SDS011;9745;50.828;4.378;2024-02-15T10:09:54;8.37;;;1.90;;
19221;SDS011;9745;50.828;4.378;2024-02-15T10:12:20;4.40;;;1.43;;
19221;SDS011;9745;50.828;4.378;2024-02-15T10:14:50;5.37;;;1.40;;
19221;SDS011;9745;50.828;4.378;2024-02-15T10:17:18;7.63;;;1.27;;
19221;SDS011;9745;50.828;4.378;2024-02-15T10:19:44;1.60;;;0.93;;
19221;SDS011;9745;50.828;4.378;2024-02-15T10:22:12;6.03;;;1.30;;
19221;SDS011;9745;50.828;4.378;2024-02-15T10:24:39;8.33;;;1.77;;
19221;SDS011;9745;50.828;4.378;2024-02-15T10:27:05;5.97;;;2.20;;
19221;SDS011;9745;50.828;4.378;2024-02-15T10:29:32;6.50;;;1.43;;
19221;SDS011;9745;50.828;4.378;2024-02-15T10:32:02;10.30;;;1.93;;
19221;SDS011;9745;50.828;4.378;2024-02-15T10:34:28;5.77;;;1.70;;
19221;SDS011;9745;50.828;4.378;2024-02-15T10:36:55;6.93;;;1.57;;
19221;SDS011;9745;50.828;4.378;2024-02-15T10:39:22;12.73;;;2.20;;
19221;SDS011;9745;50.828;4.378;2024-02-15T10:41:52;18.00;;;1.97;;
19221;SDS011;9745;50.828;4.378;2024-02-15T10:44:19;19.90;;;2.50;;
19221;SDS011;9745;50.828;4.378;2024-02-15T10:46:46;21.03;;;2.73;;
19221;SDS011;9745;50.828;4.378;2024-02-15T10:49:16;22.20;;;2.20;;
19221;SDS011;9745;50.828;4.378;2024-02-15T10:51:43;9.73;;;1.70;;
19221;SDS011;9745;50.828;4.378;2024-02-15T10:54:11;10.40;;;1.80;;
19221;SDS011;9745;50.828;4.378;2024-02-15T10:56:42;8.03;;;1.77;;
19221;SDS011;9745;50.828;4.378;2024-02-15T10:59:18;8.73;;;2.13;;
19221;SDS011;9745;50.828;4.378;2024-02-15T11:01:49;3.53;;;1.43;;
19221;SDS011;9745;50.828;4.378;2024-02-15T11:04:15;5.37;;;1.40;;
19221;SDS011;9745;50.828;4.378;2024-02-15T11:06:46;10.60;;;1.83;;
19221;SDS011;9745;50.828;4.378;2024-02-15T11:09:15;6.50;;;1.60;;
19221;SDS011;9745;50.828;4.378;2024-02-15T11:11:41;9.33;;;1.67;;
19221;SDS011;9745;50.828;4.378;2024-02-15T11:16:54;5.17;;;1.97;;
19221;SDS011;9745;50.828;4.378;2024-02-15T11:22:14;6.07;;;1.33;;
19221;SDS011;9745;50.828;4.378;2024-02-15T11:24:48;4.70;;;0.80;;
19221;SDS011;9745;50.828;4.378;2024-02-15T11:27:27;5.67;;;1.60;;
19221;SDS011;9745;50.828;4.378;2024-02-15T11:29:59;5.80;;;1.57;;
19221;SDS011;9745;50.828;4.378;2024-02-15T11:32:49;5.70;;;1.50;;
19221;SDS011;9745;50.828;4.378;2024-02-15T11:35:18;2.77;;;1.03;;
19221;SDS011;9745;50.828;4.378;2024-02-15T11:40:20;2.13;;;0.87;;
19221;SDS011;9745;50.828;4.378;2024-02-15T11:42:52;4.50;;;1.47;;
19221;SDS011;9745;50.828;4.378;2024-02-15T11:45:19;5.30;;;1.43;;
19221;SDS011;9745;50.828;4.378;2024-02-15T11:47:48;3.27;;;0.90;;
19221;SDS011;9745;50.828;4.378;2024-02-15T11:50:15;1.83;;;1.03;;
19221;SDS011;9745;50.828;4.378;2024-02-15T11:52:42;6.93;;;1.03;;
19221;SDS011;9745;50.828;4.378;2024-02-15T11:55:08;2.97;;;0.93;;
19221;SDS011;9745;50.828;4.378;2024-02-15T11:57:40;2.43;;;1.20;;
19221;SDS011;9745;50.828;4.378;2024-02-15T12:00:20;2.73;;;1.20;;
19221;SDS011;9745;50.828;4.378;2024-02-15T12:03:05;6.00;;;1.60;;
19221;SDS011;9745;50.828;4.378;2024-02-15T12:05:50;4.30;;;1.97;;
19221;SDS011;9745;50.828;4.378;2024-02-15T12:08:35;4.10;;;1.50;;
19221;SDS011;9745;50.828;4.378;2024-02-15T12:11:20;4.10;;;1.57;;
19221;SDS011;9745;50.828;4.378;2024-02-15T12:14:04;4.47;;;1.73;;
19221;SDS011;9745;50.828;4.378;2024-02-15T12:17:02;3.50;;;1.60;;
19221;SDS011;9745;50.828;4.378;2024-02-15T12:19:47;3.93;;;1.50;;
19221;SDS011;9745;50.828;4.378;2024-02-15T12:22:15;2.87;;;1.27;;
19221;SDS011;9745;50.828;4.378;2024-02-15T12:24:41;6.83;;;1.70;;
19221;SDS011;9745;50.828;4.378;2024-02-15T12:27:07;8.03;;;2.03;;
19221;SDS011;9745;50.828;4.378;2024-02-15T12:29:33;3.00;;;1.70;;
19221;SDS011;9745;50.828;4.378;2024-02-15T12:32:00;6.17;;;2.10;;
19221;SDS011;9745;50.828;4.378;2024-02-15T12:34:26;6.07;;;1.77;;
19221;SDS011;9745;50.828;4.378;2024-02-15T12:37:04;4.90;;;1.70;;
19221;SDS011;9745;50.828;4.378;2024-02-15T12:39:30;4.30;;;1.50;;
19221;SDS011;9745;50.828;4.378;2024-02-15T12:41:57;4.97;;;1.40;;
19221;SDS011;9745;50.828;4.378;2024-02-15T12:44:23;7.37;;;1.40;;
19221;SDS011;9745;50.828;4.378;2024-02-15T12:46:55;8.70;;;1.77;;
19221;SDS011;9745;50.828;4.378;2024-02-15T12:51:52;2.43;;;1.17;;
19221;SDS011;9745;50.828;4.378;2024-02-15T12:54:19;3.70;;;1.17;;
19221;SDS011;9745;50.828;4.378;2024-02-15T12:56:49;5.27;;;1.20;;
19221;SDS011;9745;50.828;4.378;2024-02-15T12:59:18;3.23;;;1.20;;
19221;SDS011;9745;50.828;4.378;2024-02-15T13:01:49;4.50;;;1.07;;
19221;SDS011;9745;50.828;4.378;2024-02-15T13:04:24;4.67;;;1.10;;
19221;SDS011;9745;50.828;4.378;2024-02-15T13:06:50;4.13;;;1.23;;
19221;SDS011;9745;50.828;4.378;2024-02-15T13:09:16;2.83;;;1.13;;
19221;SDS011;9745;50.828;4.378;2024-02-15T13:11:42;3.37;;;1.00;;
19221;SDS011;9745;50.828;4.378;2024-02-15T13:14:10;13.97;;;1.50;;
19221;SDS011;9745;50.828;4.378;2024-02-15T13:16:37;7.67;;;0.83;;
19221;SDS011;9745;50.828;4.378;2024-02-15T13:19:03;4.23;;;0.80;;
19221;SDS011;9745;50.828;4.378;2024-02-15T13:21:32;5.90;;;1.10;;
19221;SDS011;9745;50.828;4.378;2024-02-15T13:23:59;2.10;;;0.80;;
19221;SDS011;9745;50.828;4.378;2024-02-15T13:26:25;4.47;;;1.23;;
19221;SDS011;9745;50.828;4.378;2024-02-15T13:28:54;4.13;;;1.00;;
19221;SDS011;9745;50.828;4.378;2024-02-15T13:31:20;3.50;;;0.90;;
19221;SDS011;9745;50.828;4.378;2024-02-15T13:33:46;4.77;;;1.10;;
19221;SDS011;9745;50.828;4.378;2024-02-15T13:36:12;2.40;;;1.10;;
19221;SDS011;9745;50.828;4.378;2024-02-15T13:38:40;1.70;;;0.70;;
19221;SDS011;9745;50.828;4.378;2024-02-15T13:41:07;3.30;;;1.00;;
19221;SDS011;9745;50.828;4.378;2024-02-15T13:43:33;2.67;;;1.20;;
19221;SDS011;9745;50.828;4.378;2024-02-15T13:45:59;3.23;;;1.10;;
19221;SDS011;9745;50.828;4.378;2024-02-15T13:48:29;6.97;;;1.20;;
19221;SDS011;9745;50.828;4.378;2024-02-15T13:50:56;3.53;;;1.10;;
19221;SDS011;9745;50.828;4.378;2024-02-15T13:53:23;8.63;;;1.33;;
19221;SDS011;9745;50.828;4.378;2024-02-15T13:55:50;1.20;;;0.77;;
19221;SDS011;9745;50.828;4.378;2024-02-15T13:58:17;2.07;;;0.80;;
19221;SDS011;9745;50.828;4.378;2024-02-15T14:00:43;3.40;;;1.00;;
19221;SDS011;9745;50.828;4.378;2024-02-15T14:03:10;1.73;;;0.80;;
19221;SDS011;9745;50.828;4.378;2024-02-15T14:05:36;4.60;;;1.07;;
19221;SDS011;9745;50.828;4.378;2024-02-15T14:08:04;2.03;;;1.00;;
19221;SDS011;9745;50.828;4.378;2024-02-15T14:10:31;5.50;;;1.07;;
19221;SDS011;9745;50.828;4.378;2024-02-15T14:12:59;3.67;;;0.80;;
19221;SDS011;9745;50.828;4.378;2024-02-15T14:15:27;4.07;;;0.77;;
19221;SDS011;9745;50.828;4.378;2024-02-15T14:17:53;2.47;;;0.93;;
19221;SDS011;9745;50.828;4.378;2024-02-15T14:20:20;1.47;;;0.60;;
19221;SDS011;9745;50.828;4.378;2024-02-15T14:22:46;1.43;;;0.77;;
19221;SDS011;9745;50.828;4.378;2024-02-15T14:25:22;1.70;;;0.70;;
19221;SDS011;9745;50.828;4.378;2024-02-15T14:27:48;3.47;;;1.23;;
19221;SDS011;9745;50.828;4.378;2024-02-15T14:30:14;2.00;;;0.80;;
19221;SDS011;9745;50.828;4.378;2024-02-15T14:32:59;2.90;;;0.80;;
19221;SDS011;9745;50.828;4.378;2024-02-15T14:35:25;3.13;;;1.73;;
19221;SDS011;9745;50.828;4.378;2024-02-15T14:37:51;3.50;;;1.00;;
19221;SDS011;9745;50.828;4.378;2024-02-15T14:40:17;2.70;;;0.80;;
19221;SDS011;9745;50.828;4.378;2024-02-15T14:42:43;3.60;;;0.90;;
19221;SDS011;9745;50.828;4.378;2024-02-15T14:45:10;3.80;;;0.93;;
19221;SDS011;9745;50.828;4.378;2024-02-15T14:47:37;1.57;;;0.70;;
19221;SDS011;9745;50.828;4.378;2024-02-15T14:50:04;4.00;;;1.10;;
19221;SDS011;9745;50.828;4.378;2024-02-15T14:52:38;5.93;;;1.30;;
19221;SDS011;9745;50.828;4.378;2024-02-15T14:55:04;2.30;;;1.13;;
19221;SDS011;9745;50.828;4.378;2024-02-15T14:57:32;3.00;;;1.20;;
19221;SDS011;9745;50.828;4.378;2024-02-15T14:59:59;1.40;;;1.00;;
19221;SDS011;9745;50.828;4.378;2024-02-15T15:02:25;2.50;;;1.10;;
19221;SDS011;9745;50.828;4.378;2024-02-15T15:04:51;4.27;;;0.80;;
19221;SDS011;9745;50.828;4.378;2024-02-15T15:07:43;2.13;;;1.07;;
19221;SDS011;9745;50.828;4.378;2024-02-15T15:10:27;2.53;;;0.80;;
19221;SDS011;9745;50.828;4.378;2024-02-15T15:13:12;3.00;;;0.70;;